Time;durP1;ratioP1;P1;durP2;ratioP2;P2;SDS_P1;SDS_P2;PMS_P1;PMS_P2;Temp;Humidity;BMP_temperature;BMP_pressure;BME280_temperature;BME280_humidity;BME280_pressure;Samples;Min_cycle;Max_cycle;Signal;HPM_P1;HPM_P2
2022/10/27 00:00:43;;;;;;;3.20;1.20;;;;;;;;;;4968092;28;20093;-83
2022/10/27 00:03:10;;;;;;;2.42;1.20;;;;;;;;;;4964618;28;20056;-83
2022/10/27 00:05:35;;;;;;;3.78;1.48;;;;;;;;;;4932965;29;20505;-83
2022/10/27 00:08:00;;;;;;;2.78;1.38;;;;;;;;;;4949264;29;20035;-82
2022/10/27 00:10:27;;;;;;;2.38;0.90;;;;;;;;;;4951601;29;20517;-83
2022/10/27 00:12:52;;;;;;;2.45;1.20;;;;;;;;;;4956086;28;20039;-83
2022/10/27 00:15:18;;;;;;;3.35;1.30;;;;;;;;;;4932849;29;20367;-83
2022/10/27 00:17:43;;;;;;;4.25;1.35;;;;;;;;;;4948384;29;20110;-83
2022/10/27 00:20:09;;;;;;;2.78;1.05;;;;;;;;;;4948599;29;20043;-83
2022/10/27 00:22:35;;;;;;;4.10;1.20;;;;;;;;;;4950700;28;20028;-82
2022/10/27 00:25:00;;;;;;;2.47;0.98;;;;;;;;;;4951914;28;20063;-83
2022/10/27 00:27:26;;;;;;;3.13;1.30;;;;;;;;;;4951871;28;20106;-83
2022/10/27 00:29:53;;;;;;;4.78;1.30;;;;;;;;;;4952267;29;20482;-83
2022/10/27 00:32:18;;;;;;;3.40;1.10;;;;;;;;;;4951788;29;20036;-83
2022/10/27 00:34:44;;;;;;;4.68;1.48;;;;;;;;;;4951986;29;20042;-83
2022/10/27 00:37:09;;;;;;;4.15;1.40;;;;;;;;;;4951809;29;20132;-82
2022/10/27 00:39:36;;;;;;;3.83;1.35;;;;;;;;;;4951932;29;20513;-83
2022/10/27 00:42:01;;;;;;;3.22;1.23;;;;;;;;;;4951445;29;20093;-83
2022/10/27 00:44:30;;;;;;;2.88;1.05;;;;;;;;;;4951629;28;20107;-83
2022/10/27 00:46:59;;;;;;;3.58;1.13;;;;;;;;;;4951599;29;20036;-83
2022/10/27 00:49:29;;;;;;;4.47;2.08;;;;;;;;;;4951644;28;20105;-83
2022/10/27 00:52:00;;;;;;;3.40;1.23;;;;;;;;;;4951968;29;20046;-83
2022/10/27 00:54:27;;;;;;;3.03;0.93;;;;;;;;;;4952037;29;20035;-83
2022/10/27 00:56:52;;;;;;;3.20;1.17;;;;;;;;;;4950634;29;20023;-83
2022/10/27 00:59:18;;;;;;;4.50;1.00;;;;;;;;;;4951845;29;20074;-83
2022/10/27 01:01:44;;;;;;;3.55;1.35;;;;;;;;;;4952101;28;20036;-83
2022/10/27 01:04:09;;;;;;;3.63;1.02;;;;;;;;;;4971066;28;20035;-83
2022/10/27 01:06:35;;;;;;;4.03;1.30;;;;;;;;;;4970889;28;20118;-82
2022/10/27 01:09:01;;;;;;;2.88;1.10;;;;;;;;;;4986747;28;20035;-83
2022/10/27 01:11:26;;;;;;;2.35;0.93;;;;;;;;;;4986444;28;20057;-83
2022/10/27 01:13:52;;;;;;;2.75;1.23;;;;;;;;;;4954485;29;20035;-83
2022/10/27 01:16:23;;;;;;;3.45;0.93;;;;;;;;;;4986751;28;20371;-83
2022/10/27 01:18:55;;;;;;;2.63;0.93;;;;;;;;;;4970679;28;20043;-83
2022/10/27 01:21:37;;;;;;;3.25;0.88;;;;;;;;;;4987156;28;20042;-83
2022/10/27 01:24:05;;;;;;;;;;;;;;;;;;4986232;28;20046;-84
2022/10/27 01:26:52;;;;;;;1.88;0.80;;;;;;;;;;4968284;28;19958;-83
2022/10/27 01:29:41;;;;;;;2.97;1.00;;;;;;;;;;4952866;28;20035;-82
2022/10/27 01:32:57;;;;;;;2.90;1.10;;;;;;;;;;4982783;28;20035;-83
2022/10/27 01:35:31;;;;;;;3.22;0.80;;;;;;;;;;4951252;28;20030;-82
2022/10/27 01:38:01;;;;;;;4.05;1.08;;;;;;;;;;4920127;29;20032;-83
2022/10/27 01:40:40;;;;;;;3.17;1.05;;;;;;;;;;4930144;29;20094;-82
2022/10/27 01:43:12;;;;;;;4.35;1.13;;;;;;;;;;4986272;28;20106;-83
2022/10/27 01:45:38;;;;;;;2.70;0.88;;;;;;;;;;4937998;29;20485;-83
2022/10/27 01:48:04;;;;;;;2.35;0.85;;;;;;;;;;4969867;28;20081;-82
2022/10/27 01:50:33;;;;;;;2.80;0.75;;;;;;;;;;4970160;28;20019;-83
2022/10/27 01:52:59;;;;;;;2.60;1.02;;;;;;;;;;4937714;29;20125;-83
2022/10/27 01:55:36;;;;;;;2.55;0.85;;;;;;;;;;4969364;28;20058;-83
2022/10/27 01:58:11;;;;;;;5.60;1.40;;;;;;;;;;4969837;28;20046;-83
2022/10/27 02:01:18;;;;;;;4.55;0.98;;;;;;;;;;4986178;28;20031;-82
2022/10/27 02:04:02;;;;;;;2.58;0.90;;;;;;;;;;4986529;28;20496;-83
2022/10/27 02:06:47;;;;;;;1.83;0.90;;;;;;;;;;4973024;28;20090;-83
2022/10/27 02:09:13;;;;;;;2.50;0.90;;;;;;;;;;4987436;28;20421;-83
2022/10/27 02:11:40;;;;;;;3.83;1.00;;;;;;;;;;4953597;29;20066;-83
2022/10/27 02:14:05;;;;;;;2.45;0.82;;;;;;;;;;4969378;28;20082;-83
2022/10/27 02:16:31;;;;;;;1.92;0.85;;;;;;;;;;4985707;28;20039;-83
2022/10/27 02:19:08;;;;;;;1.50;0.80;;;;;;;;;;4969303;28;20063;-83
2022/10/27 02:21:34;;;;;;;2.90;1.08;;;;;;;;;;4953503;29;20036;-83
2022/10/27 02:23:59;;;;;;;3.13;1.20;;;;;;;;;;4953041;29;20084;-83
2022/10/27 02:26:30;;;;;;;2.75;0.98;;;;;;;;;;4985348;28;20125;-83
2022/10/27 02:29:01;;;;;;;4.07;1.10;;;;;;;;;;4985353;28;20094;-83
2022/10/27 02:31:34;;;;;;;1.92;0.82;;;;;;;;;;4937232;29;20031;-83
2022/10/27 02:34:00;;;;;;;2.25;0.93;;;;;;;;;;4969007;28;20411;-83
2022/10/27 02:36:25;;;;;;;2.15;0.70;;;;;;;;;;4937079;29;20039;-83
2022/10/27 02:38:51;;;;;;;3.47;0.75;;;;;;;;;;4984891;28;20035;-82
2022/10/27 02:41:17;;;;;;;1.92;0.68;;;;;;;;;;4953023;29;20043;-83
2022/10/27 02:43:43;;;;;;;2.35;0.93;;;;;;;;;;4985011;28;20032;-83
2022/10/27 02:46:08;;;;;;;2.75;1.17;;;;;;;;;;4936884;29;20143;-83
2022/10/27 02:48:34;;;;;;;1.48;0.57;;;;;;;;;;4953018;29;20117;-83
2022/10/27 02:50:59;;;;;;;5.05;1.17;;;;;;;;;;4952869;29;20071;-83
2022/10/27 02:53:26;;;;;;;1.98;0.95;;;;;;;;;;4968796;28;20378;-83
2022/10/27 02:55:51;;;;;;;3.45;0.85;;;;;;;;;;4952638;29;20050;-83
2022/10/27 02:58:16;;;;;;;1.75;0.82;;;;;;;;;;4968802;28;20039;-83
2022/10/27 03:00:43;;;;;;;3.30;1.08;;;;;;;;;;4936422;29;20366;-83
2022/10/27 03:03:08;;;;;;;4.90;0.73;;;;;;;;;;4949399;28;20086;-83
2022/10/27 03:05:35;;;;;;;1.13;0.63;;;;;;;;;;4933595;29;20473;-83
2022/10/27 03:08:00;;;;;;;2.22;0.80;;;;;;;;;;4933130;29;20039;-83
2022/10/27 03:10:27;;;;;;;2.60;0.80;;;;;;;;;;4960251;28;20378;-83
2022/10/27 03:12:52;;;;;;;3.30;1.02;;;;;;;;;;4984996;28;20035;-83
2022/10/27 03:15:17;;;;;;;2.28;0.93;;;;;;;;;;4936248;29;20382;-83
2022/10/27 03:17:46;;;;;;;3.00;0.90;;;;;;;;;;4968712;28;20355;-83
2022/10/27 03:20:12;;;;;;;2.75;1.02;;;;;;;;;;4968649;28;20043;-83
2022/10/27 03:22:38;;;;;;;0.95;0.45;;;;;;;;;;4968862;28;20039;-84
2022/10/27 03:25:03;;;;;;;1.77;0.70;;;;;;;;;;4951794;29;20039;-83
2022/10/27 03:27:29;;;;;;;3.17;0.75;;;;;;;;;;4968313;28;20031;-83
2022/10/27 03:29:54;;;;;;;2.42;0.70;;;;;;;;;;4984494;28;20047;-83
2022/10/27 03:32:20;;;;;;;1.83;0.60;;;;;;;;;;4968482;28;20402;-83
2022/10/27 03:34:45;;;;;;;3.15;1.05;;;;;;;;;;4984298;28;20039;-83
2022/10/27 03:37:11;;;;;;;1.98;1.00;;;;;;;;;;4936036;29;20385;-83
2022/10/27 03:39:36;;;;;;;1.85;0.75;;;;;;;;;;4984521;28;20070;-83
2022/10/27 03:42:01;;;;;;;2.80;0.93;;;;;;;;;;4952156;29;20027;-84
2022/10/27 03:44:27;;;;;;;1.73;0.50;;;;;;;;;;4951897;29;20386;-83
2022/10/27 03:46:52;;;;;;;2.38;0.90;;;;;;;;;;4951874;29;20467;-83
2022/10/27 03:49:18;;;;;;;2.00;0.50;;;;;;;;;;4952610;29;20035;-83
2022/10/27 03:51:43;;;;;;;2.50;1.00;;;;;;;;;;4936090;29;20430;-83
2022/10/27 03:54:08;;;;;;;2.03;0.50;;;;;;;;;;4968267;28;20399;-83
2022/10/27 03:56:34;;;;;;;2.70;0.68;;;;;;;;;;4952223;28;20387;-83
2022/10/27 03:58:59;;;;;;;1.67;0.60;;;;;;;;;;4971835;28;20043;-83
2022/10/27 04:01:25;;;;;;;1.58;0.75;;;;;;;;;;4955948;29;20039;-83
2022/10/27 04:03:50;;;;;;;1.85;0.77;;;;;;;;;;4987997;28;20058;-83
2022/10/27 04:06:15;;;;;;;2.50;0.75;;;;;;;;;;4987513;28;20516;-83
2022/10/27 04:08:41;;;;;;;2.08;0.70;;;;;;;;;;4971805;28;20054;-83
2022/10/27 04:11:06;;;;;;;3.72;0.90;;;;;;;;;;4987439;28;20039;-83
2022/10/27 04:13:32;;;;;;;4.20;0.90;;;;;;;;;;4955547;28;20031;-83
2022/10/27 04:16:01;;;;;;;1.60;0.75;;;;;;;;;;4987569;28;20035;-83
2022/10/27 04:18:26;;;;;;;1.17;0.30;;;;;;;;;;4955779;29;20039;-83
2022/10/27 04:20:51;;;;;;;2.00;0.63;;;;;;;;;;4987452;28;20035;-83
2022/10/27 04:23:17;;;;;;;2.35;0.82;;;;;;;;;;4971593;28;20446;-83
2022/10/27 04:25:45;;;;;;;2.47;0.95;;;;;;;;;;4987333;28;20042;-83
2022/10/27 04:28:11;;;;;;;2.70;0.45;;;;;;;;;;4971519;28;20394;-83
2022/10/27 04:30:36;;;;;;;1.77;0.90;;;;;;;;;;4987869;28;20039;-83
2022/10/27 04:33:02;;;;;;;2.67;0.80;;;;;;;;;;4971564;28;20039;-84
2022/10/27 04:35:27;;;;;;;1.23;0.47;;;;;;;;;;4971088;28;20035;-83
2022/10/27 04:37:56;;;;;;;1.55;0.80;;;;;;;;;;4955241;29;20397;-83
2022/10/27 04:40:21;;;;;;;2.33;0.70;;;;;;;;;;4955362;29;20038;-83
2022/10/27 04:42:47;;;;;;;2.15;0.55;;;;;;;;;;4955090;28;20039;-83
2022/10/27 04:45:12;;;;;;;1.85;0.60;;;;;;;;;;4954848;29;20035;-83
2022/10/27 04:47:38;;;;;;;1.75;0.50;;;;;;;;;;4954984;29;20039;-83
2022/10/27 04:50:04;;;;;;;4.63;0.77;;;;;;;;;;4986943;28;20046;-83
2022/10/27 04:52:30;;;;;;;2.20;0.68;;;;;;;;;;4987176;28;20039;-83
2022/10/27 04:54:55;;;;;;;2.22;0.93;;;;;;;;;;4954472;29;20367;-83
2022/10/27 04:57:21;;;;;;;2.75;0.80;;;;;;;;;;4970620;28;20043;-83
2022/10/27 04:59:46;;;;;;;2.45;0.70;;;;;;;;;;4987012;28;20035;-83
2022/10/27 05:02:11;;;;;;;2.55;0.60;;;;;;;;;;4971126;28;20039;-83
2022/10/27 05:04:37;;;;;;;1.50;0.50;;;;;;;;;;4986617;28;20027;-83
2022/10/27 05:07:02;;;;;;;1.20;0.50;;;;;;;;;;4986925;28;20390;-83
2022/10/27 05:09:28;;;;;;;1.42;0.63;;;;;;;;;;4950460;28;20028;-83
2022/10/27 05:11:53;;;;;;;1.58;0.70;;;;;;;;;;4943321;29;20050;-83
2022/10/27 05:14:19;;;;;;;1.60;0.80;;;;;;;;;;4986773;28;20031;-83
2022/10/27 05:16:44;;;;;;;0.95;0.40;;;;;;;;;;4986428;28;20199;-83
2022/10/27 05:19:10;;;;;;;1.20;0.55;;;;;;;;;;4986782;28;20038;-83
2022/10/27 05:21:36;;;;;;;1.75;0.45;;;;;;;;;;4970908;28;20039;-83
2022/10/27 05:24:02;;;;;;;2.20;0.80;;;;;;;;;;4986686;28;20489;-83
2022/10/27 05:26:27;;;;;;;1.92;0.77;;;;;;;;;;4986386;28;20043;-83
2022/10/27 05:28:53;;;;;;;2.35;0.90;;;;;;;;;;4986644;28;20501;-83
2022/10/27 05:31:18;;;;;;;1.10;0.47;;;;;;;;;;4986828;28;20394;-83
2022/10/27 05:33:44;;;;;;;1.67;0.50;;;;;;;;;;4969934;28;20039;-83
2022/10/27 05:36:09;;;;;;;2.20;0.82;;;;;;;;;;4986469;28;20110;-83
2022/10/27 05:38:36;;;;;;;2.63;0.80;;;;;;;;;;4986382;28;20434;-83
2022/10/27 05:41:03;;;;;;;1.40;0.63;;;;;;;;;;4985836;28;20093;-83
2022/10/27 05:43:28;;;;;;;4.18;0.75;;;;;;;;;;4986154;28;20031;-83
2022/10/27 05:45:54;;;;;;;1.90;0.40;;;;;;;;;;4985567;28;20145;-83
2022/10/27 05:48:19;;;;;;;1.17;0.43;;;;;;;;;;4985815;28;20512;-83
2022/10/27 05:50:44;;;;;;;2.42;0.75;;;;;;;;;;4953794;28;20101;-83
2022/10/27 05:53:10;;;;;;;1.38;0.70;;;;;;;;;;4952923;29;20078;-83
2022/10/27 05:55:35;;;;;;;3.45;0.80;;;;;;;;;;4985780;28;20039;-84
2022/10/27 05:58:02;;;;;;;2.35;0.52;;;;;;;;;;4953504;29;20027;-84
2022/10/27 06:00:32;;;;;;;3.90;0.70;;;;;;;;;;4969876;28;20393;-84
2022/10/27 06:02:58;;;;;;;1.75;0.73;;;;;;;;;;4949860;28;20086;-84
2022/10/27 06:05:24;;;;;;;2.65;0.77;;;;;;;;;;4949908;29;20031;-82
2022/10/27 06:07:50;;;;;;;2.13;0.93;;;;;;;;;;4934627;29;20594;-83
2022/10/27 06:10:15;;;;;;;4.60;1.30;;;;;;;;;;4975805;28;20035;-82
2022/10/27 06:12:41;;;;;;;61.85;50.53;;;;;;;;;;4969652;28;20042;-84
2022/10/27 06:15:06;;;;;;;52.70;40.80;;;;;;;;;;4984859;28;20035;-81
2022/10/27 06:17:32;;;;;;;39.05;31.52;;;;;;;;;;4969742;28;20043;-82
2022/10/27 06:19:57;;;;;;;34.97;27.00;;;;;;;;;;4968979;28;20490;-82
2022/10/27 06:22:23;;;;;;;32.58;25.45;;;;;;;;;;4986032;28;20034;-82
2022/10/27 06:24:48;;;;;;;28.52;23.02;;;;;;;;;;4968908;28;20039;-82
2022/10/27 06:27:14;;;;;;;29.77;21.85;;;;;;;;;;4968921;28;20038;-82
2022/10/27 06:29:39;;;;;;;25.83;21.98;;;;;;;;;;4985397;28;20472;-82
2022/10/27 06:32:04;;;;;;;23.55;20.60;;;;;;;;;;4985507;28;20039;-82
2022/10/27 06:34:30;;;;;;;25.70;20.27;;;;;;;;;;4969138;28;20397;-83
2022/10/27 06:36:55;;;;;;;27.15;19.08;;;;;;;;;;4969022;28;20474;-82
2022/10/27 06:39:20;;;;;;;31.77;20.40;;;;;;;;;;4969024;28;20043;-82
2022/10/27 06:41:46;;;;;;;22.58;18.23;;;;;;;;;;4985141;28;20031;-82
2022/10/27 06:44:11;;;;;;;23.92;18.67;;;;;;;;;;4968340;28;20039;-82
2022/10/27 06:46:38;;;;;;;24.92;18.30;;;;;;;;;;4985199;28;20050;-84
2022/10/27 06:49:04;;;;;;;22.02;15.95;;;;;;;;;;4952778;28;20034;-83
2022/10/27 06:51:30;;;;;;;21.95;16.75;;;;;;;;;;4985100;28;20398;-83
2022/10/27 06:53:57;;;;;;;23.15;18.20;;;;;;;;;;4969070;28;20393;-85
2022/10/27 06:56:22;;;;;;;42.63;28.52;;;;;;;;;;4952504;29;20046;-83
2022/10/27 06:58:48;;;;;;;36.03;26.08;;;;;;;;;;4976582;28;20110;-83
2022/10/27 07:01:14;;;;;;;32.83;21.73;;;;;;;;;;4949397;29;20112;-84
2022/10/27 07:03:41;;;;;;;27.98;20.08;;;;;;;;;;4965720;28;20134;-84
2022/10/27 07:06:06;;;;;;;32.60;18.23;;;;;;;;;;4952933;28;20039;-84
2022/10/27 07:08:32;;;;;;;27.75;18.33;;;;;;;;;;4984997;28;20449;-83
2022/10/27 07:10:57;;;;;;;27.63;17.15;;;;;;;;;;4984333;28;20035;-83
2022/10/27 07:13:23;;;;;;;25.65;15.40;;;;;;;;;;4951385;28;20024;-83
2022/10/27 07:15:48;;;;;;;22.88;15.95;;;;;;;;;;4984132;28;20122;-83
2022/10/27 07:18:14;;;;;;;20.80;14.98;;;;;;;;;;4967980;28;20031;-83
2022/10/27 07:20:39;;;;;;;18.20;12.32;;;;;;;;;;4968077;28;20035;-83
2022/10/27 07:23:06;;;;;;;18.55;12.57;;;;;;;;;;4983798;28;20085;-83
2022/10/27 07:25:32;;;;;;;23.52;13.15;;;;;;;;;;4967289;28;20027;-83
2022/10/27 07:27:58;;;;;;;17.42;12.30;;;;;;;;;;4983827;28;20590;-83
2022/10/27 07:30:27;;;;;;;19.25;11.30;;;;;;;;;;4984412;28;20411;-83
2022/10/27 07:32:53;;;;;;;18.92;11.13;;;;;;;;;;4967928;28;20027;-83
2022/10/27 07:35:18;;;;;;;16.92;10.73;;;;;;;;;;4968395;28;20078;-83
2022/10/27 07:37:47;;;;;;;15.98;11.10;;;;;;;;;;4968197;28;20031;-83
2022/10/27 07:40:13;;;;;;;17.67;9.27;;;;;;;;;;4984251;28;20082;-83
2022/10/27 07:43:05;;;;;;;16.50;9.60;;;;;;;;;;4952335;29;20039;-83
2022/10/27 07:45:30;;;;;;;16.05;8.85;;;;;;;;;;4934796;29;20054;-83
2022/10/27 07:47:56;;;;;;;16.30;8.32;;;;;;;;;;4984571;28;20070;-83
2022/10/27 07:50:23;;;;;;;13.52;9.15;;;;;;;;;;4936185;29;20557;-83
2022/10/27 07:52:50;;;;;;;13.15;7.53;;;;;;;;;;4968414;28;20089;-83
2022/10/27 07:55:16;;;;;;;12.43;7.88;;;;;;;;;;4984053;28;20035;-83
2022/10/27 07:57:42;;;;;;;16.15;6.97;;;;;;;;;;4968129;28;20031;-83
2022/10/27 08:00:09;;;;;;;12.27;7.13;;;;;;;;;;4935668;29;20058;-83
2022/10/27 08:02:34;;;;;;;12.40;7.32;;;;;;;;;;4981011;28;20032;-83
2022/10/27 08:05:00;;;;;;;12.40;7.60;;;;;;;;;;4948507;29;20376;-83
2022/10/27 08:07:27;;;;;;;10.07;6.95;;;;;;;;;;4964929;28;20506;-82
2022/10/27 08:09:52;;;;;;;14.52;6.85;;;;;;;;;;4971376;28;20040;-83
2022/10/27 08:12:19;;;;;;;11.80;6.95;;;;;;;;;;4983944;28;20082;-82
2022/10/27 08:14:44;;;;;;;10.05;4.78;;;;;;;;;;4967683;28;20046;-82
2022/10/27 08:17:10;;;;;;;9.70;4.20;;;;;;;;;;4984261;28;20043;-83
2022/10/27 08:19:36;;;;;;;10.77;4.85;;;;;;;;;;4967994;28;20047;-82
2022/10/27 08:22:02;;;;;;;8.43;4.28;;;;;;;;;;4984427;28;20035;-83
2022/10/27 08:24:28;;;;;;;5.28;2.95;;;;;;;;;;4984212;28;20556;-82
2022/10/27 08:26:53;;;;;;;7.47;2.72;;;;;;;;;;4967318;28;20027;-83
2022/10/27 08:29:19;;;;;;;5.47;1.95;;;;;;;;;;4984364;28;20114;-83
2022/10/27 08:31:44;;;;;;;4.80;2.40;;;;;;;;;;4984353;28;20472;-83
2022/10/27 08:34:10;;;;;;;5.60;1.92;;;;;;;;;;4984231;28;20410;-83
2022/10/27 08:36:38;;;;;;;5.80;1.65;;;;;;;;;;4951489;29;20375;-84
2022/10/27 08:39:12;;;;;;;5.38;1.40;;;;;;;;;;4968140;28;20035;-83
2022/10/27 08:41:47;;;;;;;3.78;1.58;;;;;;;;;;4967654;28;20062;-83
2022/10/27 08:44:35;;;;;;;5.63;1.40;;;;;;;;;;4955667;28;20039;-83
2022/10/27 08:47:05;;;;;;;5.30;1.27;;;;;;;;;;4970540;28;20047;-83
2022/10/27 08:49:35;;;;;;;5.40;1.20;;;;;;;;;;4971551;28;20042;-83
2022/10/27 08:52:10;;;;;;;5.97;2.10;;;;;;;;;;4955164;28;20042;-83
2022/10/27 08:54:35;;;;;;;3.25;1.58;;;;;;;;;;4970768;28;20040;-82
2022/10/27 08:57:02;;;;;;;2.95;1.27;;;;;;;;;;4970348;28;20049;-83
2022/10/27 08:59:29;;;;;;;4.43;0.95;;;;;;;;;;4970797;28;20034;-83
2022/10/27 09:02:33;;;;;;;3.63;1.30;;;;;;;;;;4954865;29;20043;-83
2022/10/27 09:05:05;;;;;;;3.72;1.20;;;;;;;;;;4970948;28;20035;-83
2022/10/27 09:07:42;;;;;;;4.73;1.23;;;;;;;;;;4971776;28;20058;-83
2022/10/27 09:10:31;;;;;;;3.97;1.00;;;;;;;;;;4972295;28;20478;-84
2022/10/27 09:13:06;;;;;;;3.15;1.02;;;;;;;;;;4972334;28;20404;-83
2022/10/27 09:15:43;;;;;;;4.05;1.23;;;;;;;;;;4956296;28;20066;-83
2022/10/27 09:18:33;;;;;;;5.32;1.15;;;;;;;;;;4972546;28;20040;-84
2022/10/27 09:21:01;;;;;;;4.28;1.10;;;;;;;;;;4956506;28;20042;-83
2022/10/27 09:23:42;;;;;;;3.88;1.00;;;;;;;;;;4988601;28;20398;-83
2022/10/27 09:26:08;;;;;;;8.10;1.23;;;;;;;;;;4972459;28;20067;-82
2022/10/27 09:28:39;;;;;;;4.35;1.20;;;;;;;;;;4989893;28;20054;-84
2022/10/27 09:31:10;;;;;;;3.50;1.02;;;;;;;;;;4974340;28;20041;-82
2022/10/27 09:33:35;;;;;;;8.48;1.73;;;;;;;;;;4955517;29;20032;-82
2022/10/27 09:36:13;;;;;;;4.07;1.30;;;;;;;;;;4987968;28;20055;-83
2022/10/27 09:38:38;;;;;;;5.60;1.30;;;;;;;;;;4955089;28;20027;-83
2022/10/27 09:41:04;;;;;;;2.75;1.05;;;;;;;;;;4987665;28;20057;-82
2022/10/27 09:43:29;;;;;;;3.50;1.10;;;;;;;;;;4938815;29;20359;-82
2022/10/27 09:46:08;;;;;;;4.45;0.90;;;;;;;;;;4971327;28;20402;-83
2022/10/27 09:48:36;;;;;;;3.67;1.65;;;;;;;;;;4954980;28;20042;-83
2022/10/27 09:51:22;;;;;;;4.32;1.08;;;;;;;;;;4986732;28;20055;-83
2022/10/27 09:53:51;;;;;;;6.22;1.50;;;;;;;;;;4954383;28;20410;-83
2022/10/27 09:56:25;;;;;;;5.55;1.13;;;;;;;;;;4953849;29;20035;-83
2022/10/27 09:58:59;;;;;;;5.10;1.52;;;;;;;;;;4938701;29;20067;-81
2022/10/27 10:01:48;;;;;;;3.35;0.77;;;;;;;;;;4986008;28;20038;-80
2022/10/27 10:04:24;;;;;;;3.90;1.13;;;;;;;;;;4951311;29;20028;-81
2022/10/27 10:06:52;;;;;;;4.97;1.08;;;;;;;;;;4964470;28;20038;-82
2022/10/27 10:09:24;;;;;;;4.85;1.23;;;;;;;;;;4953322;29;20024;-83
2022/10/27 10:11:50;;;;;;;5.65;1.42;;;;;;;;;;4969368;28;20121;-82
2022/10/27 10:14:21;;;;;;;5.30;1.63;;;;;;;;;;4969403;28;20442;-83
2022/10/27 10:16:46;;;;;;;7.82;2.10;;;;;;;;;;4969702;28;20394;-83
2022/10/27 10:19:17;;;;;;;5.25;1.50;;;;;;;;;;4985537;28;20374;-83
2022/10/27 10:21:45;;;;;;;3.55;1.30;;;;;;;;;;4969297;28;20035;-83
2022/10/27 10:24:24;;;;;;;7.72;1.45;;;;;;;;;;4985757;28;20122;-85
2022/10/27 10:26:55;;;;;;;6.40;1.48;;;;;;;;;;4937155;29;20032;-85
2022/10/27 10:29:31;;;;;;;5.97;1.70;;;;;;;;;;4969675;28;20034;-85
2022/10/27 10:32:16;;;;;;;5.65;1.45;;;;;;;;;;4969951;28;20430;-84
2022/10/27 10:34:42;;;;;;;4.82;1.25;;;;;;;;;;4951593;29;20078;-82
2022/10/27 10:37:26;;;;;;;7.13;1.05;;;;;;;;;;4984918;28;20040;-84
2022/10/27 10:39:52;;;;;;;7.32;1.52;;;;;;;;;;4969306;28;20030;-83
2022/10/27 10:42:18;;;;;;;3.55;1.13;;;;;;;;;;4969363;28;20078;-83
2022/10/27 10:44:44;;;;;;;8.93;1.65;;;;;;;;;;4985222;28;20130;-83
2022/10/27 10:47:26;;;;;;;6.18;1.35;;;;;;;;;;4968805;28;20043;-83
2022/10/27 10:49:55;;;;;;;10.25;2.38;;;;;;;;;;4969542;28;20525;-83
2022/10/27 10:52:24;;;;;;;10.43;2.13;;;;;;;;;;4968590;28;20039;-82
2022/10/27 10:54:49;;;;;;;14.05;2.08;;;;;;;;;;4967510;28;20034;-83
2022/10/27 10:57:37;;;;;;;11.20;2.33;;;;;;;;;;4950200;29;20035;-83
2022/10/27 11:00:04;;;;;;;10.60;2.38;;;;;;;;;;4968247;28;20482;-83
2022/10/27 11:02:30;;;;;;;12.40;2.22;;;;;;;;;;4968510;28;20086;-83
2022/10/27 11:05:18;;;;;;;6.75;1.42;;;;;;;;;;4984639;28;20035;-83
2022/10/27 11:07:45;;;;;;;14.50;2.17;;;;;;;;;;4985022;28;20120;-83
2022/10/27 11:10:21;;;;;;;6.55;1.70;;;;;;;;;;4951787;29;20397;-83
2022/10/27 11:13:02;;;;;;;7.90;1.90;;;;;;;;;;4967988;28;20478;-83
2022/10/27 11:15:35;;;;;;;9.88;1.55;;;;;;;;;;4967914;28;20042;-83
2022/10/27 11:18:11;;;;;;;6.68;1.75;;;;;;;;;;4968732;28;20075;-83
2022/10/27 11:20:37;;;;;;;11.65;2.08;;;;;;;;;;4968462;28;20031;-83
2022/10/27 11:23:05;;;;;;;4.35;1.63;;;;;;;;;;4984693;28;20534;-83
2022/10/27 11:25:31;;;;;;;5.53;1.58;;;;;;;;;;4935941;29;20062;-83
2022/10/27 11:28:24;;;;;;;8.40;1.40;;;;;;;;;;4968487;28;20079;-83
2022/10/27 11:30:55;;;;;;;5.35;1.70;;;;;;;;;;4974210;28;20040;-83
2022/10/27 11:33:24;;;;;;;7.50;1.55;;;;;;;;;;4952085;29;20039;-83
2022/10/27 11:36:01;;;;;;;6.43;1.67;;;;;;;;;;4952242;29;20368;-83
2022/10/27 11:38:50;;;;;;;7.97;1.85;;;;;;;;;;4983449;28;20031;-83
2022/10/27 11:41:18;;;;;;;8.00;1.52;;;;;;;;;;4968283;28;20039;-83
2022/10/27 11:43:49;;;;;;;3.13;1.08;;;;;;;;;;4984101;28;20088;-83
2022/10/27 11:46:41;;;;;;;6.15;2.00;;;;;;;;;;4968563;28;20045;-84
2022/10/27 11:49:15;;;;;;;4.38;1.23;;;;;;;;;;4952326;28;20046;-83
2022/10/27 11:51:50;;;;;;;3.85;1.23;;;;;;;;;;4984416;28;20110;-83
2022/10/27 11:54:15;;;;;;;3.72;1.80;;;;;;;;;;4952058;29;20047;-83
2022/10/27 11:56:50;;;;;;;7.57;1.50;;;;;;;;;;4951982;29;20028;-83
2022/10/27 11:59:37;;;;;;;5.85;1.55;;;;;;;;;;4984349;28;20091;-83
2022/10/27 12:02:39;;;;;;;4.75;1.40;;;;;;;;;;4968237;28;20058;-84
2022/10/27 12:05:09;;;;;;;6.18;2.10;;;;;;;;;;4951647;28;20035;-83
2022/10/27 12:08:04;;;;;;;4.63;1.85;;;;;;;;;;4968224;28;20908;-83
2022/10/27 12:11:08;;;;;;;3.05;1.45;;;;;;;;;;4967844;28;20032;-83
2022/10/27 12:13:43;;;;;;;4.28;1.63;;;;;;;;;;4967050;28;20043;-84
2022/10/27 12:16:41;;;;;;;13.35;2.38;;;;;;;;;;4967477;28;20031;-84
2022/10/27 12:19:18;;;;;;;14.55;2.17;;;;;;;;;;4971140;28;20038;-84
2022/10/27 12:22:06;;;;;;;5.60;1.83;;;;;;;;;;4971695;28;20050;-83
2022/10/27 12:24:34;;;;;;;8.73;2.47;;;;;;;;;;4971616;28;20039;-82
2022/10/27 12:27:04;;;;;;;11.77;2.65;;;;;;;;;;4955557;29;20031;-84
2022/10/27 12:29:34;;;;;;;8.07;2.45;;;;;;;;;;4971742;28;20043;-84
2022/10/27 12:32:05;;;;;;;8.75;2.50;;;;;;;;;;4955427;28;20027;-84
2022/10/27 12:34:42;;;;;;;17.90;3.40;;;;;;;;;;4971284;28;20123;-83
2022/10/27 12:37:14;;;;;;;7.35;1.70;;;;;;;;;;4954873;29;20066;-84
2022/10/27 12:39:46;;;;;;;5.78;1.67;;;;;;;;;;4970744;28;20038;-83
2022/10/27 12:42:32;;;;;;;3.38;1.50;;;;;;;;;;4970499;28;20078;-84
2022/10/27 12:45:36;;;;;;;10.48;2.90;;;;;;;;;;4984761;28;20482;-82
2022/10/27 12:48:27;;;;;;;8.32;2.33;;;;;;;;;;4986862;28;20023;-82
2022/10/27 12:51:12;;;;;;;7.13;1.88;;;;;;;;;;4971093;28;20035;-82
2022/10/27 12:53:48;;;;;;;7.68;2.47;;;;;;;;;;4970973;28;20510;-83
2022/10/27 12:56:27;;;;;;;7.25;2.55;;;;;;;;;;4954418;28;20482;-82
2022/10/27 12:59:14;;;;;;;6.07;2.20;;;;;;;;;;4970800;28;20035;-83
2022/10/27 13:02:01;;;;;;;9.57;3.28;;;;;;;;;;4954495;29;20500;-82
2022/10/27 13:04:30;;;;;;;9.18;2.35;;;;;;;;;;4951464;29;20035;-82
2022/10/27 13:07:14;;;;;;;6.45;2.10;;;;;;;;;;4935557;29;20493;-83
2022/10/27 13:10:02;;;;;;;10.75;2.97;;;;;;;;;;4940519;28;20035;-84
2022/10/27 13:12:34;;;;;;;15.57;3.40;;;;;;;;;;4970622;28;20039;-83
2022/10/27 13:15:29;;;;;;;10.25;3.72;;;;;;;;;;4986465;28;20057;-84
2022/10/27 13:18:19;;;;;;;9.60;3.60;;;;;;;;;;4952180;29;20050;-82
2022/10/27 13:21:02;;;;;;;8.43;3.05;;;;;;;;;;4986943;28;20035;-84
2022/10/27 13:23:34;;;;;;;6.60;3.72;;;;;;;;;;4970750;28;20114;-83
2022/10/27 13:26:15;;;;;;;9.65;3.80;;;;;;;;;;4969450;28;20042;-83
2022/10/27 13:28:44;;;;;;;6.22;2.85;;;;;;;;;;4953933;28;20039;-84
2022/10/27 13:31:20;;;;;;;11.85;2.80;;;;;;;;;;4953417;29;20113;-83
2022/10/27 13:34:02;;;;;;;13.18;4.03;;;;;;;;;;4938029;29;20130;-83
2022/10/27 13:36:27;;;;;;;7.47;3.65;;;;;;;;;;4986471;28;20442;-83
2022/10/27 13:39:15;;;;;;;7.30;3.35;;;;;;;;;;4938486;29;20031;-83
2022/10/27 13:41:53;;;;;;;9.10;3.20;;;;;;;;;;4986682;28;20085;-83
2022/10/27 13:44:28;;;;;;;7.10;2.97;;;;;;;;;;4970527;28;20121;-83
2022/10/27 13:47:03;;;;;;;8.75;3.25;;;;;;;;;;4986250;28;20043;-82
2022/10/27 13:49:40;;;;;;;6.35;2.58;;;;;;;;;;4970022;28;20031;-82
2022/10/27 13:52:15;;;;;;;8.57;3.15;;;;;;;;;;4986546;28;20494;-82
2022/10/27 13:55:00;;;;;;;6.72;2.30;;;;;;;;;;4969756;28;20050;-82
2022/10/27 13:58:02;;;;;;;12.80;3.17;;;;;;;;;;4985657;28;20091;-82
2022/10/27 14:01:07;;;;;;;13.17;3.13;;;;;;;;;;4985728;28;20027;-83
2022/10/27 14:03:35;;;;;;;12.43;3.60;;;;;;;;;;4942682;29;20056;-84
2022/10/27 14:06:00;;;;;;;11.60;2.80;;;;;;;;;;4950152;29;20171;-83
2022/10/27 14:08:31;;;;;;;28.20;4.88;;;;;;;;;;4950514;29;20542;-83
2022/10/27 14:11:06;;;;;;;8.20;3.40;;;;;;;;;;4963564;28;20482;-83
2022/10/27 14:13:38;;;;;;;19.48;3.50;;;;;;;;;;4967133;28;20038;-83
2022/10/27 14:16:04;;;;;;;;;;;;;;;;;;4984209;28;20114;-84
2022/10/27 14:18:31;;;;;;;12.98;3.35;;;;;;;;;;4969437;28;20009;-83
2022/10/27 14:20:59;;;;;;;9.00;3.33;;;;;;;;;;4985522;28;20035;-84
2022/10/27 14:23:25;;;;;;;9.93;3.40;;;;;;;;;;4966401;28;20572;-83
2022/10/27 14:25:50;;;;;;;16.00;4.63;;;;;;;;;;4949252;29;20047;-85
2022/10/27 14:28:16;;;;;;;10.80;3.72;;;;;;;;;;4949047;29;20040;-84
2022/10/27 14:30:42;;;;;;;19.70;3.78;;;;;;;;;;4950023;29;20043;-84
2022/10/27 14:33:24;;;;;;;8.73;3.08;;;;;;;;;;4949241;29;20047;-83
2022/10/27 14:36:09;;;;;;;18.30;4.63;;;;;;;;;;4948936;28;20067;-84
2022/10/27 14:38:34;;;;;;;18.67;4.07;;;;;;;;;;4948182;29;20024;-83
2022/10/27 14:41:00;;;;;;;9.35;3.17;;;;;;;;;;4947721;28;20142;-84
2022/10/27 14:43:25;;;;;;;12.73;4.47;;;;;;;;;;4947473;29;20430;-84
2022/10/27 14:46:18;;;;;;;11.82;2.97;;;;;;;;;;4947833;28;20142;-83
2022/10/27 14:48:44;;;;;;;11.93;3.88;;;;;;;;;;4932960;28;20090;-83
2022/10/27 14:51:11;;;;;;;7.63;2.97;;;;;;;;;;4948197;29;20439;-83
2022/10/27 14:53:36;;;;;;;6.72;2.83;;;;;;;;;;4933316;29;20059;-83
2022/10/27 14:56:12;;;;;;;11.00;3.05;;;;;;;;;;4949606;29;20043;-83
2022/10/27 14:58:37;;;;;;;8.35;2.97;;;;;;;;;;4949141;29;20487;-83